Time;durP1;ratioP1;P1;durP2;ratioP2;P2;SDS_P1;SDS_P2;PMS_P1;PMS_P2;Temp;Humidity;BMP_temperature;BMP_pressure;BME280_temperature;BME280_humidity;BME280_pressure;Samples;Min_cycle;Max_cycle;Signal;HPM_P1;HPM_P2
2022/05/06 00:03:39;;;;;;;41.67;22.23;;;10.60;99.90;;;;;;20914140;28;20029;-77
2022/05/06 00:13:39;;;;;;;34.20;20.03;;;10.60;99.90;;;;;;20912953;28;20033;-77
2022/05/06 00:23:40;;;;;;;33.60;19.47;;;10.70;99.90;;;;;;20912716;28;20107;-77
2022/05/06 00:33:43;;;;;;;34.93;19.77;;;10.70;99.90;;;;;;20912070;28;20506;-77
2022/05/06 00:43:44;;;;;;;34.33;18.55;;;10.70;99.90;;;;;;20894824;28;20523;-77
2022/05/06 00:53:45;;;;;;;37.80;18.93;;;10.60;99.90;;;;;;20910820;28;20041;-77
2022/05/06 01:03:46;;;;;;;28.73;16.58;;;10.60;99.90;;;;;;20898570;28;20029;-77
2022/05/06 01:13:47;;;;;;;33.55;17.17;;;10.70;99.90;;;;;;20891566;28;20031;-76
2022/05/06 01:24:03;;;;;;;27.13;16.00;;;10.60;99.90;;;;;;20890740;28;20029;-77
2022/05/06 01:34:05;;;;;;;;;;;10.70;99.90;;;;;;20960894;22;20393;-73
2022/05/06 01:44:09;;;;;;;29.73;16.02;;;10.70;99.90;;;;;;21164627;22;20286;-73
2022/05/06 01:54:12;;;;;;;34.30;18.02;;;10.60;99.90;;;;;;21139127;28;20027;-73
2022/05/06 02:14:34;;;;;;;25.67;14.73;;;10.60;99.90;;;;;;21138609;28;20390;-73
2022/05/06 02:24:55;;;;;;;21.73;12.55;;;10.60;99.90;;;;;;21114308;28;20028;-73
2022/05/06 02:35:15;;;;;;;26.25;14.57;;;10.60;99.90;;;;;;21167350;28;20419;-73
2022/05/06 02:45:17;;;;;;;28.23;15.93;;;10.60;99.90;;;;;;21153119;28;20031;-73
2022/05/06 02:55:20;;;;;;;26.58;13.75;;;10.60;99.90;;;;;;21152647;28;20081;-73
2022/05/06 03:05:21;;;;;;;26.67;14.25;;;10.60;99.90;;;;;;21151479;28;20082;-72
2022/05/06 03:15:24;;;;;;;29.73;14.33;;;10.70;99.90;;;;;;21170290;28;20024;-73
2022/05/06 03:25:47;;;;;;;23.55;14.30;;;10.60;99.90;;;;;;21149963;28;20110;-73
2022/05/06 03:35:48;;;;;;;26.40;15.07;;;10.60;99.90;;;;;;21149086;28;20059;-74
2022/05/06 03:45:50;;;;;;;28.65;15.05;;;10.50;99.90;;;;;;21147444;28;20039;-74
2022/05/06 03:55:54;;;;;;;23.35;13.70;;;10.60;99.90;;;;;;21159942;27;21361;-75
2022/05/06 04:05:57;;;;;;;24.02;12.65;;;10.60;99.90;;;;;;21188800;27;20033;-74
2022/05/06 04:16:01;;;;;;;19.98;10.93;;;10.60;99.90;;;;;;21155053;27;20032;-74
2022/05/06 04:26:06;;;;;;;18.05;10.65;;;10.60;99.90;;;;;;21160802;28;20035;-74
2022/05/06 04:36:10;;;;;;;14.65;8.77;;;10.50;99.90;;;;;;21161268;28;20435;-75
2022/05/06 04:46:13;;;;;;;15.48;9.23;;;10.60;99.90;;;;;;21160199;28;20031;-74
2022/05/06 04:56:15;;;;;;;18.90;11.07;;;10.70;99.90;;;;;;21158733;28;20397;-75
2022/05/06 05:06:18;;;;;;;;;;;10.60;99.90;;;;;;21159205;28;20059;-75
2022/05/06 05:16:21;;;;;;;21.92;11.95;;;10.60;99.90;;;;;;21158371;28;19907;-74
2022/05/06 05:26:22;;;;;;;22.83;12.07;;;10.60;99.90;;;;;;21158939;28;20055;-73
2022/05/06 05:36:23;;;;;;;18.83;11.60;;;10.70;99.90;;;;;;21157177;28;20373;-74
2022/05/06 05:56:47;;;;;;;23.02;11.43;;;10.70;99.90;;;;;;21105644;28;20027;-72
2022/05/06 06:06:48;;;;;;;19.10;11.37;;;10.90;99.90;;;;;;21124417;28;20042;-73
2022/05/06 06:16:52;;;;;;;20.80;12.93;;;11.00;99.90;;;;;;21095855;28;20046;-73
2022/05/06 06:26:54;;;;;;;21.50;13.27;;;11.00;99.90;;;;;;21136156;28;20024;-72
2022/05/06 06:36:59;;;;;;;26.02;12.82;;;11.20;99.90;;;;;;21137674;28;20028;-72
2022/05/06 06:47:01;;;;;;;;;;;11.20;99.90;;;;;;21153386;28;20042;-73
2022/05/06 06:57:20;;;;;;;27.48;13.55;;;11.10;99.90;;;;;;21151918;28;19908;-73
2022/05/06 07:17:40;;;;;;;31.20;16.00;;;10.90;99.90;;;;;;21168515;28;20051;-73
2022/05/06 07:27:43;;;;;;;29.90;16.17;;;11.10;99.90;;;;;;21167840;28;20026;-73
2022/05/06 07:37:44;;;;;;;33.22;16.23;;;11.10;99.90;;;;;;21197391;22;20061;-81
2022/05/06 07:47:45;;;;;;;30.17;15.90;;;11.10;99.90;;;;;;21203968;28;20055;-80
2022/05/06 07:57:47;;;;;;;30.07;15.97;;;11.10;99.90;;;;;;21192275;28;20112;-81
2022/05/06 08:07:47;;;;;;;24.67;13.43;;;11.20;99.90;;;;;;21215228;28;20118;-81
2022/05/06 08:17:49;;;;;;;26.37;12.83;;;11.50;99.90;;;;;;21134790;28;20054;-81
2022/05/06 08:27:51;;;;;;;20.77;12.45;;;11.60;99.90;;;;;;21100534;28;20028;-81
2022/05/06 08:37:52;;;;;;;25.88;14.50;;;11.80;99.90;;;;;;21110022;28;20051;-81
2022/05/06 08:58:13;;;;;;;22.92;12.93;;;11.90;99.90;;;;;;21123221;28;20083;-80
2022/05/06 09:08:14;;;;;;;20.87;12.43;;;11.80;99.90;;;;;;21113459;28;20028;-79
2022/05/06 09:18:24;;;;;;;16.37;10.57;;;11.80;99.90;;;;;;21127833;28;20035;-80
2022/05/06 09:28:30;;;;;;;18.95;11.18;;;11.90;99.90;;;;;;21099843;28;20028;-79
2022/05/06 09:38:31;;;;;;;20.95;12.68;;;11.90;99.90;;;;;;21096910;28;20111;-81
2022/05/06 09:48:31;;;;;;;25.03;13.60;;;11.80;99.90;;;;;;21127774;28;20035;-80
2022/05/06 09:58:32;;;;;;;26.30;15.07;;;11.80;99.90;;;;;;21110543;28;20063;-80
2022/05/06 10:08:34;;;;;;;31.00;14.53;;;11.90;99.90;;;;;;21121365;28;20032;-79
2022/05/06 10:18:43;;;;;;;21.92;13.05;;;12.10;99.90;;;;;;21122196;28;20040;-79
2022/05/06 10:39:26;;;;;;;29.05;16.65;;;12.00;99.90;;;;;;21130374;28;20500;-80
2022/05/06 10:49:39;;;;;;;31.75;17.02;;;12.00;99.90;;;;;;21088302;28;20032;-80
2022/05/06 10:59:50;;;;;;;31.92;17.52;;;12.00;99.90;;;;;;21137707;28;20081;-80
2022/05/06 11:09:51;;;;;;;29.17;17.83;;;12.10;99.90;;;;;;21136216;28;20032;-81
2022/05/06 11:19:55;;;;;;;36.97;19.70;;;12.50;99.90;;;;;;21194669;28;20038;-81
2022/05/06 11:29:57;;;;;;;38.80;21.85;;;12.70;99.90;;;;;;21212842;28;20362;-79
2022/05/06 11:50:19;;;;;;;43.15;25.77;;;13.30;99.90;;;;;;21210898;28;20036;-79
2022/05/06 12:00:20;;;;;;;40.67;23.45;;;13.60;99.90;;;;;;21211511;28;20031;-79
2022/05/06 12:10:26;;;;;;;36.30;23.10;;;13.90;99.90;;;;;;21210066;28;20057;-79
2022/05/06 12:20:35;;;;;;;43.42;24.27;;;13.50;99.90;;;;;;21209311;28;20028;-79
2022/05/06 12:30:37;;;;;;;41.70;25.25;;;13.30;99.90;;;;;;21206015;28;20040;-79
2022/05/06 12:40:38;;;;;;;36.00;24.08;;;13.40;99.90;;;;;;21191142;28;20086;-79
2022/05/06 12:50:39;;;;;;;38.97;23.37;;;13.60;99.90;;;;;;21203519;28;20031;-78
2022/05/06 13:00:40;;;;;;;34.10;21.27;;;13.80;99.90;;;;;;21199527;28;20035;-80
2022/05/06 13:10:41;;;;;;;33.07;21.73;;;13.90;99.90;;;;;;21177959;28;20039;-79
2022/05/06 13:20:44;;;;;;;36.57;22.40;;;13.90;99.90;;;;;;21196548;28;20023;-79
2022/05/06 13:30:45;;;;;;;38.50;24.23;;;13.90;99.90;;;;;;21191984;28;20469;-79
2022/05/06 13:40:48;;;;;;;39.73;22.27;;;14.00;99.90;;;;;;21184561;22;20135;-72
2022/05/06 13:50:52;;;;;;;28.65;19.55;;;14.10;99.90;;;;;;21156408;28;20039;-71
2022/05/06 14:00:55;;;;;;;27.92;18.98;;;14.10;99.90;;;;;;21105071;28;20645;-72
2022/05/06 14:10:57;;;;;;;25.17;16.97;;;14.50;99.90;;;;;;21110208;28;20058;-72
2022/05/06 14:20:58;;;;;;;22.67;15.38;;;15.10;99.90;;;;;;21093718;28;20405;-72
2022/05/06 14:30:59;;;;;;;20.00;14.43;;;16.40;99.90;;;;;;21110136;28;20040;-72
2022/05/06 14:41:01;;;;;;;28.27;18.50;;;16.50;99.90;;;;;;21109352;28;20106;-72
2022/05/06 14:51:02;;;;;;;27.75;17.27;;;15.30;99.90;;;;;;21118881;28;20293;-72
2022/05/06 15:01:03;;;;;;;39.00;19.50;;;15.00;99.90;;;;;;21143299;28;20031;-71
2022/05/06 15:11:04;;;;;;;41.10;23.63;;;14.50;99.90;;;;;;21134447;28;20421;-72
2022/05/06 15:21:06;;;;;;;29.03;18.23;;;14.10;99.90;;;;;;21146868;28;20152;-72
2022/05/06 15:31:08;;;;;;;;;;;14.50;99.90;;;;;;21133963;28;20126;-72
2022/05/06 15:41:10;;;;;;;33.47;20.50;;;15.20;99.90;;;;;;21128785;28;20040;-72
2022/05/06 15:51:16;;;;;;;30.92;21.38;;;15.20;99.90;;;;;;21098406;28;20039;-71
2022/05/06 16:01:18;;;;;;;38.88;23.75;;;14.90;99.90;;;;;;21098153;28;20032;-71
2022/05/06 16:11:19;;;;;;;39.03;23.63;;;14.70;99.90;;;;;;21130669;28;20036;-71
2022/05/06 16:21:20;;;;;;;38.13;23.80;;;14.40;99.90;;;;;;21163105;28;20080;-71
2022/05/06 16:31:24;;;;;;;33.47;22.03;;;14.20;99.90;;;;;;21131689;28;20028;-72
2022/05/06 16:41:24;;;;;;;26.98;17.20;;;14.20;99.90;;;;;;21154809;28;20038;-72
2022/05/06 16:51:26;;;;;;;22.73;15.40;;;14.20;99.90;;;;;;21099041;28;20035;-71
2022/05/06 17:01:27;;;;;;;16.60;11.87;;;13.90;99.90;;;;;;21092802;28;20157;-72
2022/05/06 17:11:28;;;;;;;14.63;11.00;;;13.60;99.90;;;;;;21112704;28;20493;-73
2022/05/06 17:21:32;;;;;;;17.03;10.43;;;13.50;99.90;;;;;;21116034;28;20027;-72
2022/05/06 17:31:38;;;;;;;18.75;12.18;;;13.40;99.90;;;;;;21115255;28;20020;-72
2022/05/06 17:41:39;;;;;;;15.00;10.77;;;13.30;99.90;;;;;;21112117;28;20035;-72
2022/05/06 17:51:41;;;;;;;22.37;11.47;;;13.30;99.90;;;;;;21109023;28;20035;-72
2022/05/06 18:01:43;;;;;;;21.35;12.63;;;13.30;99.90;;;;;;21080313;28;20124;-72
2022/05/06 18:11:44;;;;;;;20.02;10.50;;;13.20;99.90;;;;;;21121017;28;20038;-72
2022/05/06 18:21:44;;;;;;;12.73;8.70;;;13.30;99.90;;;;;;21112584;28;20024;-72
2022/05/06 18:42:04;;;;;;;17.42;11.63;;;12.90;99.90;;;;;;21087213;28;20050;-73
2022/05/06 18:52:06;;;;;;;17.90;12.57;;;13.00;99.90;;;;;;21153738;28;20488;-73
2022/05/06 19:02:07;;;;;;;;;;;13.00;99.90;;;;;;21170811;28;20038;-73
2022/05/06 19:12:08;;;;;;;17.13;11.52;;;12.90;99.90;;;;;;21167770;28;19918;-73
2022/05/06 19:32:29;;;;;;;17.38;11.90;;;12.20;99.90;;;;;;21167706;28;20374;-73
2022/05/06 19:42:30;;;;;;;20.87;12.87;;;12.30;99.90;;;;;;21187093;22;20071;-73
2022/05/06 20:02:52;;;;;;;23.23;15.15;;;12.10;99.90;;;;;;21123069;28;20044;-73
2022/05/06 20:12:53;;;;;;;22.48;15.15;;;12.00;99.90;;;;;;21022942;28;20036;-72
2022/05/06 20:22:54;;;;;;;23.83;14.03;;;12.00;99.90;;;;;;21016476;28;20127;-73
2022/05/06 20:32:55;;;;;;;25.03;15.67;;;12.10;99.90;;;;;;21019664;28;20066;-73
2022/05/06 20:42:56;;;;;;;24.90;15.33;;;12.10;99.90;;;;;;20995463;28;20065;-72
2022/05/06 20:52:57;;;;;;;19.70;13.13;;;12.10;99.90;;;;;;21013800;28;20120;-71
2022/05/06 21:02:57;;;;;;;15.87;11.67;;;12.10;99.90;;;;;;21013053;28;20123;-73
2022/05/06 21:13:16;;;;;;;20.20;14.20;;;12.10;99.90;;;;;;21014355;28;21330;-74
2022/05/06 21:23:17;;;;;;;19.70;13.50;;;11.90;99.90;;;;;;21015797;28;20040;-73
2022/05/06 21:33:18;;;;;;;23.67;16.00;;;11.70;99.90;;;;;;21017730;28;20040;-73
2022/05/06 21:43:19;;;;;;;25.23;15.87;;;11.70;99.90;;;;;;21030172;28;20496;-73
2022/05/06 21:53:20;;;;;;;30.60;15.63;;;11.60;99.90;;;;;;21012709;28;20044;-73
2022/05/06 22:03:21;;;;;;;22.73;15.50;;;11.70;99.90;;;;;;21022203;28;20021;-73
2022/05/06 22:13:23;;;;;;;25.47;16.67;;;11.60;99.90;;;;;;20989493;28;20040;-73
2022/05/06 22:23:24;;;;;;;28.25;16.83;;;11.60;99.90;;;;;;20971291;28;20028;-73
2022/05/06 22:54:03;;;;;;;22.23;13.38;;;11.60;99.90;;;;;;21085079;28;20024;-73
2022/05/06 23:04:04;;;;;;;20.10;13.93;;;11.60;99.90;;;;;;21067969;28;20106;-73
2022/05/06 23:14:05;;;;;;;20.17;14.37;;;11.60;99.90;;;;;;21085257;28;20084;-73
2022/05/06 23:24:06;;;;;;;22.70;13.93;;;11.50;99.90;;;;;;21084585;28;20031;-73
2022/05/06 23:34:07;;;;;;;19.80;14.13;;;11.40;99.90;;;;;;21083407;28;20085;-73
2022/05/06 23:44:09;;;;;;;24.13;14.27;;;11.30;99.90;;;;;;21084429;28;20044;-73
2022/05/06 23:54:10;;;;;;;29.70;16.25;;;11.40;99.90;;;;;;21082202;28;20401;-73
